createdAt,value
2022-10-09T00:01:47.946Z,100240.94
2022-10-09T00:04:19.655Z,100242.88
2022-10-09T00:06:51.416Z,100241.34
2022-10-09T00:09:26.254Z,100243.03
2022-10-09T00:11:57.915Z,100239.72
2022-10-09T00:14:29.703Z,100243.34
2022-10-09T00:17:01.427Z,100251.41
2022-10-09T00:19:35.802Z,100246.41
2022-10-09T00:22:07.490Z,100239.47
2022-10-09T00:24:39.191Z,100244.91
2022-10-09T00:27:10.898Z,100247.84
2022-10-09T00:29:42.595Z,100247.91
2022-10-09T00:32:17.811Z,100257.25
2022-10-09T00:34:50.717Z,100263.81
2022-10-09T00:37:24.387Z,100264.66
2022-10-09T00:39:56.137Z,100262.84
2022-10-09T00:42:27.832Z,100265.63
2022-10-09T00:45:02.647Z,100262.44
2022-10-09T00:47:49.367Z,100257.97
2022-10-09T00:50:38.499Z,100258.56
2022-10-09T00:53:15.788Z,100258.56
2022-10-09T00:55:47.671Z,100252.63
2022-10-09T00:58:19.796Z,100259.97
2022-10-09T01:00:54.746Z,100258.31
2022-10-09T01:03:26.336Z,100260.16
2022-10-09T01:06:52.311Z,100250.84
2022-10-09T01:09:32.404Z,100256.41
2022-10-09T01:12:39.204Z,100264.91
2022-10-09T01:15:27.684Z,100268.00
2022-10-09T01:18:30.954Z,100267.31
2022-10-09T01:21:18.244Z,100261.75
2022-10-09T01:24:31.949Z,100265.50
2022-10-09T01:27:09.166Z,100262.88
2022-10-09T01:29:55.432Z,100260.22
2022-10-09T01:32:37.460Z,100269.16
2022-10-09T01:35:12.486Z,100267.72
2022-10-09T01:37:48.029Z,100269.53
2022-10-09T01:40:21.367Z,100268.56
2022-10-09T01:42:53.477Z,100270.53
2022-10-09T01:45:39.173Z,100272.59
2022-10-09T01:48:23.750Z,100281.50
2022-10-09T01:51:01.812Z,100278.31
2022-10-09T01:53:36.737Z,100280.25
2022-10-09T01:56:14.113Z,100278.88
2022-10-09T01:59:18.868Z,100274.88
2022-10-09T02:01:52.036Z,100278.75
2022-10-09T02:04:24.728Z,100273.91
2022-10-09T02:06:56.937Z,100276.00
2022-10-09T02:09:30.272Z,100272.66
2022-10-09T02:12:07.383Z,100280.56
2022-10-09T02:14:39.575Z,100283.50
2022-10-09T02:17:21.888Z,100284.59
2022-10-09T02:20:08.398Z,100281.44
2022-10-09T02:22:41.085Z,100279.19
2022-10-09T02:25:13.419Z,100281.81
2022-10-09T02:27:46.859Z,100289.91
2022-10-09T02:30:20.858Z,100296.41
2022-10-09T02:32:53.701Z,100290.47
2022-10-09T02:35:25.990Z,100289.75
2022-10-09T02:37:57.713Z,100296.84
2022-10-09T02:40:29.693Z,100299.75
2022-10-09T02:43:02.269Z,100297.81
2022-10-09T02:45:36.838Z,100302.81
2022-10-09T02:48:12.211Z,100299.75
2022-10-09T02:50:43.912Z,100305.03
2022-10-09T02:53:15.572Z,100304.06
2022-10-09T02:55:47.265Z,100300.72
2022-10-09T02:58:19.088Z,100298.78
2022-10-09T03:00:53.031Z,100302.41
2022-10-09T03:03:24.801Z,100297.66
2022-10-09T03:06:13.769Z,100302.25
2022-10-09T03:08:47.562Z,100304.22
2022-10-09T03:11:21.464Z,100308.06
2022-10-09T03:13:56.253Z,100302.13
2022-10-09T03:16:27.918Z,100296.97
2022-10-09T03:19:00.154Z,100303.34
2022-10-09T03:21:31.844Z,100304.34
2022-10-09T03:24:03.589Z,100311.25
2022-10-09T03:26:35.258Z,100302.50
2022-10-09T03:29:06.944Z,100311.56
2022-10-09T03:31:54.087Z,100310.16
2022-10-09T03:34:27.943Z,100316.81
2022-10-09T03:36:59.519Z,100310.84
2022-10-09T03:39:31.581Z,100317.09
2022-10-09T03:42:03.360Z,100312.91
2022-10-09T03:44:35.076Z,100322.06
2022-10-09T03:47:07.255Z,100326.78
2022-10-09T03:49:38.931Z,100331.94
2022-10-09T03:52:10.590Z,100330.25
2022-10-09T03:54:42.286Z,100334.81
2022-10-09T03:57:15.940Z,100338.69
2022-10-09T03:59:47.613Z,100335.34
2022-10-09T04:02:19.325Z,100335.34
2022-10-09T04:04:51.083Z,100335.78
2022-10-09T04:07:28.114Z,100337.56
2022-10-09T04:09:59.931Z,100340.47
2022-10-09T04:12:31.697Z,100343.38
2022-10-09T04:15:04.322Z,100343.63
2022-10-09T04:17:36.525Z,100342.94
2022-10-09T04:20:09.771Z,100347.38
2022-10-09T04:22:41.592Z,100349.47
2022-10-09T04:25:13.446Z,100353.31
2022-10-09T04:27:45.157Z,100347.34
2022-10-09T04:30:20.817Z,100356.06
2022-10-09T04:32:52.579Z,100356.78
2022-10-09T04:35:24.308Z,100353.31
2022-10-09T04:37:56.045Z,100359.53
2022-10-09T04:40:27.695Z,100363.28
2022-10-09T04:42:59.472Z,100354.69
2022-10-09T04:45:31.315Z,100365.34
2022-10-09T04:48:03.176Z,100364.66
2022-10-09T04:50:39.008Z,100365.75
2022-10-09T04:53:10.746Z,100364.34
2022-10-09T04:55:46.483Z,100368.22
2022-10-09T04:58:18.161Z,100370.25
2022-10-09T05:00:49.850Z,100368.59
2022-10-09T05:03:21.632Z,100369.69
2022-10-09T05:05:53.321Z,100366.34
2022-10-09T05:08:25.040Z,100366.22
2022-10-09T05:11:05.428Z,100369.94
2022-10-09T05:13:40.393Z,100371.19
2022-10-09T05:16:15.274Z,100368.44
2022-10-09T05:18:49.460Z,100366.47
2022-10-09T05:21:21.669Z,100362.88
2022-10-09T05:23:54.868Z,100370.09
2022-10-09T05:26:27.784Z,100370.09
2022-10-09T05:28:59.742Z,100372.56
2022-10-09T05:31:31.947Z,100373.16
2022-10-09T05:34:09.704Z,100373.84
2022-10-09T05:36:41.385Z,100376.25
2022-10-09T05:39:13.240Z,100369.84
2022-10-09T05:41:44.982Z,100374.72
2022-10-09T05:44:16.767Z,100371.41
2022-10-09T05:46:48.525Z,100374.44
2022-10-09T05:49:20.313Z,100378.28
2022-10-09T05:51:52.027Z,100372.53
2022-10-09T05:54:23.816Z,100374.69
2022-10-09T05:56:55.699Z,100382.41
2022-10-09T05:59:27.942Z,100376.09
2022-10-09T06:02:00.047Z,100372.00
2022-10-09T06:04:31.961Z,100369.22
2022-10-09T06:07:03.732Z,100375.38
2022-10-09T06:09:35.466Z,100373.69
2022-10-09T06:12:07.663Z,100369.06
2022-10-09T06:14:39.359Z,100372.06
2022-10-09T06:17:11.145Z,100371.41
2022-10-09T06:19:42.877Z,100373.38
2022-10-09T06:22:14.520Z,100373.44
2022-10-09T06:24:46.204Z,100368.13
2022-10-09T06:27:17.911Z,100364.84
2022-10-09T06:29:49.639Z,100366.16
2022-10-09T06:32:21.429Z,100371.94
2022-10-09T06:34:53.532Z,100368.03
2022-10-09T06:37:25.247Z,100371.97
2022-10-09T06:39:56.979Z,100370.50
2022-10-09T06:42:28.720Z,100373.78
2022-10-09T06:45:02.672Z,100370.91
2022-10-09T06:47:36.916Z,100370.81
2022-10-09T06:50:09.358Z,100377.75
2022-10-09T06:52:41.039Z,100382.91
2022-10-09T06:55:15.786Z,100388.59
2022-10-09T06:57:47.498Z,100395.84
2022-10-09T07:00:19.203Z,100396.75
2022-10-09T07:02:51.524Z,100402.94
2022-10-09T07:05:23.925Z,100405.03
2022-10-09T07:07:56.468Z,100409.72
2022-10-09T07:10:28.159Z,100410.66
2022-10-09T07:12:59.846Z,100413.59
2022-10-09T07:15:31.679Z,100415.34
2022-10-09T07:18:03.458Z,100411.16
2022-10-09T07:20:36.384Z,100407.25
2022-10-09T07:23:10.003Z,100421.09
2022-10-09T07:25:44.407Z,100410.88
2022-10-09T07:28:16.212Z,100417.59
2022-10-09T07:30:48.116Z,100416.66
2022-10-09T07:33:20.308Z,100424.75
2022-10-09T07:35:56.570Z,100416.53
2022-10-09T07:38:29.106Z,100423.09
2022-10-09T07:41:03.113Z,100424.25
2022-10-09T07:43:36.986Z,100429.88
2022-10-09T07:46:12.863Z,100431.06
2022-10-09T07:48:45.868Z,100437.09
2022-10-09T07:51:20.628Z,100430.38
2022-10-09T07:53:53.241Z,100436.44
2022-10-09T07:56:31.164Z,100430.34
2022-10-09T07:59:06.250Z,100431.31
2022-10-09T08:01:39.133Z,100434.63
2022-10-09T08:04:10.921Z,100439.41
2022-10-09T08:06:42.783Z,100431.25
2022-10-09T08:09:14.452Z,100428.97
2022-10-09T08:11:49.025Z,100438.47
2022-10-09T08:14:20.783Z,100426.41
2022-10-09T08:16:52.683Z,100431.13
2022-10-09T08:19:27.408Z,100428.09
2022-10-09T08:22:02.639Z,100426.06
2022-10-09T08:24:39.081Z,100437.59
2022-10-09T08:27:11.971Z,100437.69
2022-10-09T08:29:43.622Z,100438.50
2022-10-09T08:32:15.329Z,100439.81
2022-10-09T08:34:48.248Z,100430.69
2022-10-09T08:37:20.016Z,100438.63
2022-10-09T08:39:51.895Z,100437.34
2022-10-09T08:42:42.956Z,100435.00
2022-10-09T08:45:18.268Z,100439.34
2022-10-09T08:48:01.257Z,100436.38
2022-10-09T08:50:38.034Z,100432.50
2022-10-09T08:53:47.418Z,100429.84
2022-10-09T08:56:19.378Z,100431.94
2022-10-09T08:58:51.085Z,100430.34
2022-10-09T09:02:10.932Z,100431.72
2022-10-09T09:05:05.173Z,100432.09
2022-10-09T09:07:54.863Z,100427.06
2022-10-09T09:10:32.223Z,100420.19
2022-10-09T09:13:39.518Z,100420.25
2022-10-09T09:16:21.321Z,100422.28
2022-10-09T09:19:03.715Z,100426.09
2022-10-09T09:21:48.525Z,100417.38
2022-10-09T09:24:39.837Z,100416.50
2022-10-09T09:27:16.131Z,100416.03
2022-10-09T09:30:15.259Z,100415.94
2022-10-09T09:32:56.999Z,100402.00
2022-10-09T09:35:47.065Z,100413.56
2022-10-09T09:38:18.805Z,100407.06
2022-10-09T09:40:51.320Z,100408.81
2022-10-09T09:43:25.707Z,100394.19
2022-10-09T09:46:00.694Z,100398.06
2022-10-09T09:48:34.727Z,100387.22
2022-10-09T09:51:27.906Z,100394.53
2022-10-09T09:54:15.296Z,100384.94
2022-10-09T09:57:10.998Z,100387.06
2022-10-09T09:59:43.155Z,100379.09
2022-10-09T10:02:24.045Z,100383.28
2022-10-09T10:04:59.704Z,100377.16
2022-10-09T10:07:34.609Z,100381.03
2022-10-09T10:10:15.612Z,100379.34
2022-10-09T10:12:53.585Z,100377.41
2022-10-09T10:15:28.645Z,100368.94
2022-10-09T10:18:16.082Z,100377.13
2022-10-09T10:20:57.003Z,100373.00
2022-10-09T10:23:44.863Z,100370.31
2022-10-09T10:26:31.994Z,100374.19
2022-10-09T10:29:18.577Z,100364.88
2022-10-09T10:32:16.007Z,100356.31
2022-10-09T10:34:57.735Z,100359.56
2022-10-09T10:38:07.085Z,100360.59
2022-10-09T10:40:47.162Z,100363.03
2022-10-09T10:43:32.715Z,100350.00
2022-10-09T10:46:25.597Z,100344.16
2022-10-09T10:49:00.042Z,100341.38
2022-10-09T10:51:55.793Z,100338.50
2022-10-09T10:54:40.545Z,100334.53
2022-10-09T10:57:30.819Z,100325.09
2022-10-09T11:00:07.859Z,100332.69
2022-10-09T11:02:49.145Z,100333.34
2022-10-09T11:05:25.482Z,100336.56
2022-10-09T11:08:20.741Z,100323.91
2022-10-09T11:11:16.932Z,100324.09
2022-10-09T11:14:00.303Z,100322.56
2022-10-09T11:16:38.025Z,100319.75
2022-10-09T11:19:47.036Z,100314.53
2022-10-09T11:22:32.132Z,100311.75
2022-10-09T11:25:10.514Z,100307.91
2022-10-09T11:28:03.571Z,100310.88
2022-10-09T11:30:44.120Z,100304.88
2022-10-09T11:33:43.986Z,100306.72
2022-10-09T11:36:25.877Z,100291.88
2022-10-09T11:39:06.361Z,100277.97
2022-10-09T11:41:39.210Z,100273.38
2022-10-09T11:44:52.005Z,100277.50
2022-10-09T11:47:58.920Z,100269.31
2022-10-09T11:50:36.451Z,100274.38
2022-10-09T11:53:18.663Z,100272.69
2022-10-09T11:56:02.313Z,100260.72
2022-10-09T11:58:34.842Z,100261.13
2022-10-09T12:01:40.686Z,100257.50
2022-10-09T12:04:12.653Z,100250.19
2022-10-09T12:07:00.741Z,100253.63
2022-10-09T12:09:37.872Z,100240.59
2022-10-09T12:12:15.554Z,100242.47
2022-10-09T12:14:50.421Z,100235.88
2022-10-09T12:17:22.120Z,100233.50
2022-10-09T12:20:00.915Z,100225.69
2022-10-09T12:22:42.867Z,100223.44
2022-10-09T12:25:26.491Z,100226.56
2022-10-09T12:28:00.376Z,100214.97
2022-10-09T12:30:47.535Z,100215.41
2022-10-09T12:33:34.951Z,100225.31
2022-10-09T12:36:15.671Z,100214.84
2022-10-09T12:38:49.512Z,100212.56
2022-10-09T12:41:30.132Z,100204.53
2022-10-09T12:44:29.283Z,100206.38
2022-10-09T12:47:14.627Z,100195.88
2022-10-09T12:50:18.502Z,100193.38
2022-10-09T12:52:57.972Z,100190.50
2022-10-09T12:55:41.979Z,100190.09
2022-10-09T12:58:23.504Z,100184.94
2022-10-09T13:00:58.275Z,100193.81
2022-10-09T13:03:32.820Z,100177.81
2022-10-09T13:06:05.758Z,100186.38
2022-10-09T13:08:59.980Z,100174.78
2022-10-09T13:11:33.657Z,100172.78
2022-10-09T13:14:05.326Z,100161.69
2022-10-09T13:16:43.187Z,100164.84
2022-10-09T13:19:27.012Z,100164.84
2022-10-09T13:22:07.587Z,100154.31
2022-10-09T13:24:39.285Z,100152.44
2022-10-09T13:27:14.694Z,100149.13
2022-10-09T13:29:48.090Z,100166.09
2022-10-09T13:32:24.346Z,100150.31
2022-10-09T13:34:57.961Z,100138.97
2022-10-09T13:37:29.738Z,100130.22
2022-10-09T13:40:01.467Z,100138.03
2022-10-09T13:42:39.421Z,100138.19
2022-10-09T13:45:11.420Z,100136.97
2022-10-09T13:47:43.083Z,100136.81
2022-10-09T13:50:15.720Z,100127.16
2022-10-09T13:52:47.551Z,100126.38
2022-10-09T13:55:19.353Z,100122.88
2022-10-09T13:57:51.671Z,100121.22
2022-10-09T14:00:23.775Z,100132.06
2022-10-09T14:02:55.512Z,100117.31
2022-10-09T14:05:27.224Z,100112.19
2022-10-09T14:07:59.219Z,100114.16
2022-10-09T14:10:30.832Z,100115.66
2022-10-09T14:13:02.741Z,100106.84
2022-10-09T14:15:34.449Z,100107.19
2022-10-09T14:18:06.445Z,100101.97
2022-10-09T14:20:38.100Z,100115.88
2022-10-09T14:23:09.859Z,100105.13
2022-10-09T14:25:41.972Z,100114.81
2022-10-09T14:28:13.759Z,100105.19
2022-10-09T14:30:49.009Z,100097.13
2022-10-09T14:33:20.887Z,100096.69
2022-10-09T14:35:52.706Z,100095.84
2022-10-09T14:38:24.848Z,100097.00
2022-10-09T14:40:56.503Z,100085.38
2022-10-09T14:43:28.264Z,100090.78
2022-10-09T14:46:07.513Z,100083.34
2022-10-09T14:48:39.997Z,100092.50
2022-10-09T14:51:14.789Z,100090.00
2022-10-09T14:53:47.234Z,100080.09
2022-10-09T14:56:21.221Z,100079.03
2022-10-09T14:58:53.867Z,100080.34
2022-10-09T15:01:34.321Z,100080.63
2022-10-09T15:04:07.013Z,100072.00
2022-10-09T15:06:39.191Z,100069.34
2022-10-09T15:09:11.128Z,100066.03
2022-10-09T15:11:42.950Z,100059.06
2022-10-09T15:14:14.748Z,100063.31
2022-10-09T15:16:47.029Z,100068.81
2022-10-09T15:19:19.119Z,100064.41
2022-10-09T15:21:51.856Z,100071.22
2022-10-09T15:24:23.658Z,100061.25
2022-10-09T15:26:55.428Z,100065.63
2022-10-09T15:29:27.154Z,100061.13
2022-10-09T15:31:58.996Z,100052.00
2022-10-09T15:34:30.974Z,100056.63
2022-10-09T15:37:02.612Z,100053.56
2022-10-09T15:39:35.121Z,100055.03
2022-10-09T15:42:07.168Z,100059.78
2022-10-09T15:44:41.392Z,100050.69
2022-10-09T15:47:16.715Z,100047.56
2022-10-09T15:49:53.228Z,100053.25
2022-10-09T15:52:25.490Z,100049.31
2022-10-09T15:54:57.181Z,100039.84
2022-10-09T15:57:28.852Z,100039.84
2022-10-09T16:00:03.215Z,100042.88
2022-10-09T16:02:36.665Z,100047.72
2022-10-09T16:05:09.163Z,100040.94
2022-10-09T16:07:41.393Z,100037.66
2022-10-09T16:10:13.104Z,100040.34
2022-10-09T16:12:44.949Z,100039.88
2022-10-09T16:15:16.886Z,100040.41
2022-10-09T16:17:50.850Z,100040.97
2022-10-09T16:20:22.676Z,100036.81
2022-10-09T16:22:54.341Z,100040.88
2022-10-09T16:25:26.272Z,100041.06
2022-10-09T16:27:57.964Z,100043.09
2022-10-09T16:30:29.728Z,100042.59
2022-10-09T16:33:01.529Z,100044.78
2022-10-09T16:35:33.317Z,100045.78
2022-10-09T16:38:05.851Z,100052.66
2022-10-09T16:43:36.739Z,100051.00
2022-10-09T16:46:27.384Z,100050.22
2022-10-09T16:49:01.123Z,100051.41
2022-10-09T16:51:35.833Z,100053.41
2022-10-09T16:54:07.527Z,100044.31
2022-10-09T16:56:40.375Z,100052.00
2022-10-09T16:59:13.062Z,100059.28
2022-10-09T17:01:46.458Z,100054.31
2022-10-09T17:04:18.174Z,100049.69
2022-10-09T17:06:51.269Z,100048.75
2022-10-09T17:09:23.181Z,100050.91
2022-10-09T17:11:57.780Z,100044.47
2022-10-09T17:14:31.401Z,100057.44
2022-10-09T17:17:08.014Z,100060.59
2022-10-09T17:19:40.616Z,100056.81
2022-10-09T17:22:12.359Z,100052.19
2022-10-09T17:24:44.039Z,100058.00
2022-10-09T17:27:15.928Z,100043.41
2022-10-09T17:29:47.696Z,100057.19
2022-10-09T17:32:22.722Z,100062.19
2022-10-09T17:34:54.426Z,100057.56
2022-10-09T17:37:26.251Z,100061.72
2022-10-09T17:39:57.886Z,100063.22
2022-10-09T17:42:29.599Z,100062.06
2022-10-09T17:45:02.056Z,100063.38
2022-10-09T17:47:37.010Z,100055.88
2022-10-09T17:50:09.082Z,100062.84
2022-10-09T17:52:40.800Z,100066.84
2022-10-09T17:55:12.571Z,100057.72
2022-10-09T17:57:44.356Z,100061.19
2022-10-09T18:00:22.490Z,100065.34
2022-10-09T18:02:54.818Z,100055.41
2022-10-09T18:05:26.680Z,100062.72
2022-10-09T18:08:01.158Z,100059.69
2022-10-09T18:10:32.973Z,100056.91
2022-10-09T18:13:06.060Z,100050.59
2022-10-09T18:15:38.742Z,100045.78
2022-10-09T18:18:11.565Z,100039.13
2022-10-09T18:20:43.234Z,100039.63
2022-10-09T18:23:17.475Z,100042.78
2022-10-09T18:25:54.951Z,100037.78
2022-10-09T18:30:58.925Z,100037.47
2022-10-09T18:33:30.685Z,100044.75
2022-10-09T18:36:09.032Z,100038.25
2022-10-09T18:38:40.739Z,100033.97
2022-10-09T18:41:12.569Z,100043.41
2022-10-09T18:43:44.643Z,100036.94
2022-10-09T18:46:20.960Z,100027.78
2022-10-09T18:48:54.536Z,100031.25
2022-10-09T18:51:28.588Z,100028.09
2022-10-09T18:54:03.689Z,100030.09
2022-10-09T18:56:36.974Z,100025.09
2022-10-09T18:59:13.028Z,100025.44
2022-10-09T19:01:44.795Z,100026.25
2022-10-09T19:04:17.040Z,100025.75
2022-10-09T19:06:52.240Z,100026.91
2022-10-09T19:09:24.049Z,100024.41
2022-10-09T19:11:55.925Z,100021.09
2022-10-09T19:14:27.995Z,100025.00
2022-10-09T19:16:59.785Z,100022.53
2022-10-09T19:19:32.113Z,100021.03
2022-10-09T19:22:04.781Z,100022.31
2022-10-09T19:24:36.685Z,100023.34
2022-10-09T19:27:08.588Z,100022.66
2022-10-09T19:29:40.627Z,100010.56
2022-10-09T19:32:12.371Z,100019.13
2022-10-09T19:34:47.890Z,100015.47
2022-10-09T19:37:26.110Z,100015.09
2022-10-09T19:40:01.497Z,100017.25
2022-10-09T19:42:35.617Z,100024.34
2022-10-09T19:45:08.025Z,100016.88
2022-10-09T19:47:43.121Z,100021.63
2022-10-09T19:50:15.174Z,100021.97
2022-10-09T19:52:47.094Z,100016.31
2022-10-09T19:55:19.054Z,100012.34
2022-10-09T19:57:51.394Z,100019.22
2022-10-09T20:00:26.421Z,100019.31
2022-10-09T20:02:58.188Z,100010.03
2022-10-09T20:05:30.220Z,100017.28
2022-10-09T20:08:04.957Z,100019.75
2022-10-09T20:10:38.445Z,100013.06
2022-10-09T20:13:10.158Z,100020.63
2022-10-09T20:15:42.779Z,100022.59
2022-10-09T20:18:14.490Z,100014.66
2022-10-09T20:20:48.402Z,100019.59
2022-10-09T20:23:20.431Z,100020.06
2022-10-09T20:26:06.212Z,100009.81
2022-10-09T20:28:41.414Z,100011.41
2022-10-09T20:31:20.815Z,100011.69
2022-10-09T20:33:54.396Z,100016.59
2022-10-09T20:36:27.684Z,100015.38
2022-10-09T20:39:01.527Z,100001.94
2022-10-09T20:41:33.854Z,100006.41
2022-10-09T20:44:06.301Z,100009.66
2022-10-09T20:46:39.663Z,100001.91
2022-10-09T20:49:16.361Z,100007.47
2022-10-09T20:51:48.190Z,100007.78
2022-10-09T20:54:21.462Z,100005.38
2022-10-09T20:56:53.378Z,99996.13
2022-10-09T20:59:25.057Z,100001.69
2022-10-09T21:01:56.952Z,99993.94
2022-10-09T21:04:32.146Z,99995.03
2022-10-09T21:07:04.103Z,99993.97
2022-10-09T21:09:36.532Z,99991.78
2022-10-09T21:12:08.519Z,99995.53
2022-10-09T21:14:40.291Z,99985.44
2022-10-09T21:17:13.099Z,99989.38
2022-10-09T21:19:44.827Z,99987.00
2022-10-09T21:22:16.943Z,99983.00
2022-10-09T21:24:51.401Z,99986.09
2022-10-09T21:27:23.159Z,99975.84
2022-10-09T21:29:54.788Z,99978.78
2022-10-09T21:32:26.577Z,99978.91
2022-10-09T21:34:58.221Z,99971.97
2022-10-09T21:37:30.057Z,99973.94
2022-10-09T21:40:01.826Z,99970.75
2022-10-09T21:42:33.613Z,99970.38
2022-10-09T21:45:05.728Z,99975.13
2022-10-09T21:47:37.474Z,99969.59
2022-10-09T21:50:09.757Z,99960.31
2022-10-09T21:52:41.463Z,99962.28
2022-10-09T21:55:13.111Z,99957.28
2022-10-09T21:57:45.285Z,99951.47
2022-10-09T22:00:17.537Z,99950.94
2022-10-09T22:02:49.493Z,99946.09
2022-10-09T22:05:24.094Z,99946.25
2022-10-09T22:07:55.744Z,99935.28
2022-10-09T22:10:27.610Z,99933.94
2022-10-09T22:12:59.254Z,99936.16
2022-10-09T22:15:31.002Z,99941.88
2022-10-09T22:18:02.734Z,99942.31
2022-10-09T22:20:34.664Z,99942.47
2022-10-09T22:23:06.408Z,99942.06
2022-10-09T22:25:38.536Z,99938.03
2022-10-09T22:28:10.248Z,99940.66
2022-10-09T22:30:41.975Z,99940.00
2022-10-09T22:33:13.708Z,99935.97
2022-10-09T22:35:45.812Z,99935.56
2022-10-09T22:38:17.503Z,99950.72
2022-10-09T22:40:52.192Z,99942.25
2022-10-09T22:43:26.764Z,99938.22
2022-10-09T22:45:58.445Z,99933.53
2022-10-09T22:48:30.244Z,99938.09
2022-10-09T22:51:04.027Z,99933.00
2022-10-09T22:53:37.043Z,99931.59
2022-10-09T22:56:16.011Z,99925.78
2022-10-09T22:58:49.339Z,99935.50
2022-10-09T23:01:29.931Z,99924.69
2022-10-09T23:04:11.166Z,99926.63
2022-10-09T23:06:44.599Z,99921.66
2022-10-09T23:09:16.372Z,99915.03
2022-10-09T23:11:48.047Z,99916.78
2022-10-09T23:14:20.063Z,99915.13
2022-10-09T23:16:52.064Z,99919.56
2022-10-09T23:19:23.820Z,99907.34
2022-10-09T23:21:55.405Z,99909.84
2022-10-09T23:24:27.075Z,99910.81
2022-10-09T23:26:58.762Z,99902.53
2022-10-09T23:29:30.449Z,99905.41
2022-10-09T23:32:02.073Z,99914.44
2022-10-09T23:34:33.833Z,99901.28
2022-10-09T23:37:05.541Z,99898.38
2022-10-09T23:39:37.223Z,99911.00
2022-10-09T23:42:08.920Z,99904.19
2022-10-09T23:44:40.750Z,99901.56
2022-10-09T23:47:12.496Z,99892.97
2022-10-09T23:49:44.204Z,99893.13
2022-10-09T23:52:15.823Z,99894.22
2022-10-09T23:54:47.611Z,99892.56
2022-10-09T23:57:19.235Z,99895.47
2022-10-09T23:59:50.937Z,99902.78
